Annandale, New Jersey
Current Conditions -  °F | °C
As of 11:53 PM on Sunday 23 Nov 2014 (Local Time) from KSMQ Reporting Station
Overcast Overcast  
Wind Chill: 40°   Ceiling: 4800
Heat Index: 43°   Visibility: 10mi
Dew Point: 33°   Wind: 5mph
Humidity: 68%   Direction: 310°NW
Pressure: 29.95"   Gusts: NA
Location:  40.65°N, 74.89°W
Report Text: KSMQ 240453Z AUTO 31004KT 10SM OVC048 06/01 A2995 RMK AO2 RAB28E50 SLP143 P0000 T00610006 401501006
Loading
Personal Weather Stations






























Interactive Weather Map New forecast layout! Learn more

10-Day Weather Forecast

Advertisements
Track Severe Weather on mobile